Montgomery, NY

3:04 PM EST en Noviembre 24, 2014 (GMT -0500)
Buffer Zone (Berea) | Change Station
CLOSE
Current Station
Estación meteorológica personal
Location: Montgomery, NY
Altura: 427 ft
Estaciones meteorológicas cercanas
Aviso en curso: Winter Storm Watch Aviso activo: Public Information Statement

Alt 427 ft 41.52 °N, 74.18 °W | Updated 15 seconds ago

Partly Cloudy
Parcialmente nublado
71.1 ° F
Sensación térmica 75 ° F
N
7.2
Viento Variable Viento desde Sur
Gusts 11.9 mph

Hoy
Alta -- | Baja -- ° F
--% Posibilidad de precipitaciones
Ayer
Alta -- | Baja -- ° F
Precip. -- pul
6:56 AM 4:30 PM
Creciente, 7% visible
Presión 29.50 pul
Visibilidad 10.0 Millas
Nubes Baja 3700 ft
Índice de calor 75 ° F
Punto de rocío 59 ° F
Humedad 66%
Precipitaciones 0.33 pul
Espesor de la nieve No disponible.
UV 1 de una escala de 12
Polen .10 de una escala de 12
Calidad del aire No disponible.
Flu Activity No disponible.
METAR KMGJ 241854Z AUTO 20020G26KT 10SM FEW037 22/13 A2950 RMK AO2 PK WND 19026/1854 PRESFR SLP989 T02220133 TSNO

More Conditions Fewer Conditions

Presión 29.50 pul
Visibilidad 10.0 Millas
Nubes Baja 3700 ft
Índice de calor 75 ° F
Punto de rocío 59 ° F
Humedad 66%
Precipitaciones 0.33 pul
Espesor de la nieve No disponible.
UV 1 de una escala de 12
Polen .10 de una escala de 12
Calidad del aire No disponible.
Flu Activity No disponible.
METAR KMGJ 241854Z AUTO 20020G26KT 10SM FEW037 22/13 A2950 RMK AO2 PK WND 19026/1854 PRESFR SLP989 T02220133 TSNO

More Conditions Fewer Conditions

10-Day Weather Forecast

Almanac

Astronomía

Nov. 24, 2014 Salida Puesta
Hora real
Crepúsculo civil
Crepúsculo náutico
Crepúsculo astronómico
Luna
Horas de luz
Horas de luz
Tomorrow will be .
, % of the Moon is Illuminated

Extremos de hoy

Máximos del estado Bajos del estado

Community

WunderPhotos

Upload Photos

1,773,401 ¡fotos cargadas!

WunderBlogs® & News

Nearby

Calidad del aire

  Calidad del aire Índice AQ Contaminante
Not available.

Grosos de nieve

Estación Profundido Altura

Actividad de terremotos

Ciudad Distance Mag. Tiempo y dato
Magnitud mínima muestra es 2,5.

Temperaturas de aguas costeras

Lugar Temperatura

Estaciones meteorológicas cercanas